Aviation Digital Data Service (ADDS)

Output produced by METARs form (1026 UTC 16 August 2018)
found at http://aviationweather.gov/adds/metars/
 
KMSY 160953Z 00000KT 10SM SCT050 BKN250 27/26 A3004 RMK AO2 SLP174 T02720256